createdAt,value
2023-05-04T00:00:23.788Z,11.68
2023-05-04T00:02:50.388Z,9.52
2023-05-04T00:05:16.951Z,7.95
2023-05-04T00:07:43.437Z,8.95
2023-05-04T00:10:10.309Z,9.55
2023-05-04T00:12:36.880Z,8.05
2023-05-04T00:15:04.127Z,13.68
2023-05-04T00:17:30.968Z,8.05
2023-05-04T00:19:57.516Z,9.80
2023-05-04T00:22:24.024Z,8.02
2023-05-04T00:24:50.509Z,12.88
2023-05-04T00:27:16.993Z,13.75
2023-05-04T00:29:43.474Z,8.40
2023-05-04T00:32:09.990Z,10.82
2023-05-04T00:34:36.514Z,14.70
2023-05-04T00:37:03.065Z,11.60
2023-05-04T00:39:29.643Z,13.20
2023-05-04T00:41:56.182Z,11.90
2023-05-04T00:44:22.671Z,12.00
2023-05-04T00:46:50.745Z,9.30
2023-05-04T00:49:17.653Z,11.52
2023-05-04T00:51:44.561Z,10.02
2023-05-04T00:54:12.067Z,15.13
2023-05-04T00:56:38.594Z,12.40
2023-05-04T00:59:05.090Z,10.15
2023-05-04T01:01:31.720Z,8.75
2023-05-04T01:03:58.731Z,11.38
2023-05-04T01:06:25.279Z,9.02
2023-05-04T01:09:00.179Z,9.75
2023-05-04T01:11:43.989Z,8.65
2023-05-04T01:14:12.583Z,12.25
2023-05-04T01:16:39.151Z,10.73
2023-05-04T01:19:05.854Z,8.55
2023-05-04T01:21:32.378Z,14.07
2023-05-04T01:23:59.168Z,10.55
2023-05-04T01:26:29.731Z,9.57
2023-05-04T01:29:05.229Z,11.95
2023-05-04T01:31:34.802Z,9.02
2023-05-04T01:34:02.102Z,9.98
2023-05-04T01:36:29.035Z,10.02
2023-05-04T01:38:57.799Z,10.45
2023-05-04T01:41:24.354Z,10.63
2023-05-04T01:43:50.932Z,8.48
2023-05-04T01:46:17.511Z,8.55
2023-05-04T01:48:44.038Z,12.00
2023-05-04T01:51:10.545Z,12.38
2023-05-04T01:53:37.019Z,9.40
2023-05-04T01:56:03.819Z,9.55
2023-05-04T01:58:30.442Z,11.52
2023-05-04T02:00:57.031Z,11.27
2023-05-04T02:03:23.572Z,11.20
2023-05-04T02:05:50.179Z,9.38
2023-05-04T02:08:16.654Z,9.40
2023-05-04T02:10:43.174Z,10.13
2023-05-04T02:13:09.728Z,9.80
2023-05-04T02:15:36.447Z,10.57
2023-05-04T02:18:03.113Z,11.55
2023-05-04T02:20:29.653Z,9.13
2023-05-04T02:22:56.202Z,9.23
2023-05-04T02:25:23.283Z,13.18
2023-05-04T02:27:50.069Z,9.45
2023-05-04T02:30:16.610Z,15.48
2023-05-04T02:32:43.198Z,11.25
2023-05-04T02:35:09.799Z,10.25
2023-05-04T02:37:36.363Z,8.95
2023-05-04T02:40:03.037Z,12.05
2023-05-04T02:42:29.891Z,10.95
2023-05-04T02:44:56.390Z,14.88
2023-05-04T02:47:22.949Z,11.70
2023-05-04T02:49:49.567Z,15.60
2023-05-04T02:52:16.067Z,13.90
2023-05-04T02:54:42.584Z,10.10
2023-05-04T02:57:09.094Z,9.45
2023-05-04T02:59:35.562Z,9.90
2023-05-04T03:02:02.033Z,11.23
2023-05-04T03:04:28.656Z,13.93
2023-05-04T03:06:55.238Z,12.02
2023-05-04T03:09:21.777Z,8.82
2023-05-04T03:11:48.343Z,10.32
2023-05-04T03:14:14.962Z,9.55
2023-05-04T03:16:41.524Z,8.30
2023-05-04T03:19:08.137Z,11.18
2023-05-04T03:21:34.727Z,13.13
2023-05-04T03:24:01.327Z,10.18
2023-05-04T03:26:27.966Z,10.75
2023-05-04T03:28:54.784Z,11.35
2023-05-04T03:31:21.379Z,9.75
2023-05-04T03:33:47.973Z,12.48
2023-05-04T03:36:14.541Z,12.43
2023-05-04T03:38:41.076Z,11.38
2023-05-04T03:41:07.640Z,11.95
2023-05-04T03:43:34.221Z,14.18
2023-05-04T03:46:00.803Z,11.00
2023-05-04T03:48:27.401Z,8.95
2023-05-04T03:50:54.019Z,12.57
2023-05-04T03:53:20.536Z,13.45
2023-05-04T03:55:47.061Z,10.82
2023-05-04T03:58:13.891Z,9.23
2023-05-04T04:00:40.489Z,10.38
2023-05-04T04:03:07.108Z,9.95
2023-05-04T04:05:33.970Z,12.00
2023-05-04T04:08:00.513Z,8.65
2023-05-04T04:10:27.052Z,11.05
2023-05-04T04:12:53.682Z,8.70
2023-05-04T04:15:20.307Z,11.23
2023-05-04T04:17:46.876Z,11.60
2023-05-04T04:20:13.532Z,12.00
2023-05-04T04:22:40.075Z,9.35
2023-05-04T04:25:06.692Z,10.05
2023-05-04T04:27:33.251Z,11.95
2023-05-04T04:29:59.779Z,9.10
2023-05-04T04:32:26.357Z,11.73
2023-05-04T04:34:52.923Z,9.23
2023-05-04T04:37:19.422Z,9.93
2023-05-04T04:39:46.035Z,7.65
2023-05-04T04:42:12.634Z,8.18
2023-05-04T04:44:39.196Z,9.02
2023-05-04T04:47:05.831Z,8.55
2023-05-04T04:49:32.436Z,9.05
2023-05-04T04:51:58.919Z,9.05
2023-05-04T04:54:25.402Z,14.75
2023-05-04T04:56:51.934Z,11.38
2023-05-04T04:59:18.438Z,11.38
2023-05-04T05:01:44.904Z,12.68
2023-05-04T05:04:11.472Z,8.73
2023-05-04T05:06:38.011Z,8.73
2023-05-04T05:09:04.566Z,9.73
2023-05-04T05:11:32.704Z,8.98
2023-05-04T05:13:59.246Z,12.00
2023-05-04T05:16:25.934Z,7.57
2023-05-04T05:18:52.552Z,9.30
2023-05-04T05:21:19.081Z,14.10
2023-05-04T05:23:45.566Z,9.13
2023-05-04T05:26:12.099Z,8.75
2023-05-04T05:28:38.610Z,10.45
2023-05-04T05:31:05.239Z,11.27
2023-05-04T05:33:31.822Z,8.98
2023-05-04T05:35:58.329Z,10.05
2023-05-04T05:38:24.853Z,12.32
2023-05-04T05:40:51.401Z,11.05
2023-05-04T05:43:17.889Z,11.00
2023-05-04T05:45:44.398Z,10.90
2023-05-04T05:48:10.989Z,13.60
2023-05-04T05:50:37.626Z,10.27
2023-05-04T05:53:04.107Z,9.60
2023-05-04T05:55:30.675Z,11.57
2023-05-04T05:57:57.237Z,9.93
2023-05-04T06:00:23.815Z,10.18
2023-05-04T06:02:50.537Z,14.57
2023-05-04T06:05:17.066Z,13.88
2023-05-04T06:07:43.575Z,10.35
2023-05-04T06:10:10.431Z,9.98
2023-05-04T06:12:36.994Z,9.88
2023-05-04T06:15:03.777Z,10.38
2023-05-04T06:17:30.319Z,9.88
2023-05-04T06:19:56.881Z,13.77
2023-05-04T06:22:23.402Z,10.40
2023-05-04T06:24:49.978Z,8.27
2023-05-04T06:27:16.574Z,10.50
2023-05-04T06:29:43.055Z,8.38
2023-05-04T06:32:10.210Z,7.80
2023-05-04T06:34:36.882Z,7.70
2023-05-04T06:37:03.428Z,8.43
2023-05-04T06:39:29.976Z,7.97
2023-05-04T06:41:56.598Z,6.90
2023-05-04T06:44:23.184Z,5.85
2023-05-04T06:46:49.759Z,6.63
2023-05-04T06:49:16.296Z,8.38
2023-05-04T06:51:42.812Z,8.70
2023-05-04T06:54:09.311Z,5.95
2023-05-04T06:56:35.824Z,10.05
2023-05-04T06:59:02.320Z,8.95
2023-05-04T07:01:28.878Z,8.35
2023-05-04T07:03:55.408Z,8.75
2023-05-04T07:06:22.016Z,6.63
2023-05-04T07:08:48.561Z,6.70
2023-05-04T07:11:15.113Z,4.80
2023-05-04T07:13:41.634Z,6.75
2023-05-04T07:16:08.320Z,4.85
2023-05-04T07:18:35.094Z,8.77
2023-05-04T07:21:16.057Z,5.95
2023-05-04T07:23:48.162Z,5.63
2023-05-04T07:26:14.683Z,7.50
2023-05-04T07:28:41.215Z,10.23
2023-05-04T07:31:07.736Z,7.72
2023-05-04T07:33:34.273Z,6.57
2023-05-04T07:36:00.800Z,8.27
2023-05-04T07:38:27.622Z,6.32
2023-05-04T07:40:55.004Z,7.70
2023-05-04T07:43:22.335Z,9.73
2023-05-04T07:45:49.004Z,6.07
2023-05-04T07:48:16.266Z,7.65
2023-05-04T07:50:44.447Z,4.50
2023-05-04T07:53:11.021Z,7.10
2023-05-04T07:55:37.607Z,6.13
2023-05-04T07:58:04.112Z,5.72
2023-05-04T08:00:30.930Z,7.78
2023-05-04T08:02:57.457Z,8.77
2023-05-04T08:05:24.112Z,6.97
2023-05-04T08:07:50.618Z,8.93
2023-05-04T08:10:17.154Z,7.40
2023-05-04T08:12:43.651Z,8.15
2023-05-04T08:15:10.665Z,6.70
2023-05-04T08:17:37.241Z,5.68
2023-05-04T08:20:04.245Z,7.47
2023-05-04T08:22:30.832Z,5.55
2023-05-04T08:24:57.363Z,7.70
2023-05-04T08:27:23.909Z,8.68
2023-05-04T08:29:50.460Z,7.80
2023-05-04T08:32:16.931Z,6.57
2023-05-04T08:34:43.435Z,5.57
2023-05-04T08:37:10.076Z,5.82
2023-05-04T08:39:36.724Z,6.63
2023-05-04T08:42:03.296Z,7.15
2023-05-04T08:44:29.983Z,6.50
2023-05-04T08:46:57.291Z,7.70
2023-05-04T08:49:24.494Z,6.15
2023-05-04T08:51:51.912Z,9.30
2023-05-04T08:54:19.554Z,8.05
2023-05-04T08:56:46.597Z,5.85
2023-05-04T08:59:19.516Z,7.43
2023-05-04T09:01:49.466Z,9.30
2023-05-04T09:04:17.611Z,7.07
2023-05-04T09:06:44.744Z,6.28
2023-05-04T09:09:11.531Z,6.13
2023-05-04T09:11:38.083Z,6.70
2023-05-04T09:14:04.808Z,6.65
2023-05-04T09:16:38.204Z,10.63
2023-05-04T09:19:16.397Z,6.22
2023-05-04T09:21:42.968Z,8.15
2023-05-04T09:24:09.520Z,7.40
2023-05-04T09:26:36.112Z,8.63
2023-05-04T09:29:15.258Z,6.00
2023-05-04T09:31:50.199Z,9.15
2023-05-04T09:34:17.350Z,6.68
2023-05-04T09:36:44.103Z,7.05
2023-05-04T09:39:15.447Z,6.60
2023-05-04T09:41:42.444Z,6.63
2023-05-04T09:44:19.850Z,8.25
2023-05-04T09:46:53.218Z,7.63
2023-05-04T09:49:29.468Z,7.47
2023-05-04T09:51:58.150Z,6.95
2023-05-04T09:54:26.436Z,8.57
2023-05-04T09:56:59.223Z,10.52
2023-05-04T09:59:30.449Z,7.75
2023-05-04T10:02:00.492Z,7.95
2023-05-04T10:04:36.052Z,6.63
2023-05-04T10:07:04.127Z,7.53
2023-05-04T10:09:31.306Z,7.25
2023-05-04T10:12:01.930Z,8.43
2023-05-04T10:14:33.550Z,8.45
2023-05-04T10:17:29.801Z,6.55
2023-05-04T10:19:59.329Z,6.97
2023-05-04T10:22:43.487Z,6.25
2023-05-04T10:25:38.840Z,7.28
2023-05-04T10:28:43.072Z,7.72
2023-05-04T10:31:09.683Z,8.68
2023-05-04T10:33:43.175Z,7.80
2023-05-04T10:36:10.684Z,4.82
2023-05-04T10:38:39.226Z,6.45
2023-05-04T10:41:18.578Z,6.72
2023-05-04T10:43:45.887Z,7.88
2023-05-04T10:46:20.160Z,9.30
2023-05-04T10:48:47.265Z,8.68
2023-05-04T10:51:19.136Z,7.03
2023-05-04T10:53:45.835Z,6.00
2023-05-04T10:56:26.657Z,5.30
2023-05-04T10:58:54.236Z,6.35
2023-05-04T11:01:21.661Z,5.75
2023-05-04T11:03:48.826Z,6.00
2023-05-04T11:06:16.013Z,6.85
2023-05-04T11:08:43.543Z,9.70
2023-05-04T11:11:10.064Z,7.18
2023-05-04T11:13:41.983Z,6.30
2023-05-04T11:16:09.843Z,4.63
2023-05-04T11:18:36.386Z,4.82
2023-05-04T11:21:03.351Z,7.85
2023-05-04T11:23:30.686Z,7.60
2023-05-04T11:25:57.281Z,5.05
2023-05-04T11:28:37.725Z,5.30
2023-05-04T11:31:17.915Z,5.53
2023-05-04T11:33:48.938Z,6.90
2023-05-04T11:36:16.375Z,6.47
2023-05-04T11:38:42.992Z,6.18
2023-05-04T11:41:09.911Z,8.60
2023-05-04T11:43:38.592Z,4.53
2023-05-04T11:46:06.774Z,6.75
2023-05-04T11:48:35.193Z,5.82
2023-05-04T11:51:05.294Z,5.03
2023-05-04T11:53:39.746Z,7.03
2023-05-04T11:56:07.398Z,5.22
2023-05-04T11:58:34.325Z,5.63
2023-05-04T12:01:01.035Z,5.55
2023-05-04T12:03:43.961Z,4.72
2023-05-04T12:06:15.112Z,5.03
2023-05-04T12:08:41.646Z,7.30
2023-05-04T12:11:08.076Z,5.90
2023-05-04T12:13:34.588Z,4.47
2023-05-04T12:16:11.465Z,7.63
2023-05-04T12:18:38.280Z,6.03
2023-05-04T12:21:12.723Z,6.03
2023-05-04T12:23:40.550Z,6.03
2023-05-04T12:26:08.891Z,7.05
2023-05-04T12:28:36.117Z,4.63
2023-05-04T12:31:04.344Z,8.38
2023-05-04T12:33:31.441Z,5.00
2023-05-04T12:35:58.675Z,6.03
2023-05-04T12:38:25.503Z,6.93
2023-05-04T12:40:52.087Z,7.57
2023-05-04T12:43:20.849Z,6.55
2023-05-04T12:45:47.577Z,6.43
2023-05-04T12:48:14.067Z,4.78
2023-05-04T12:50:40.594Z,5.38
2023-05-04T12:53:07.378Z,6.15
2023-05-04T12:55:33.940Z,5.80
2023-05-04T12:58:00.435Z,5.22
2023-05-04T13:00:27.100Z,5.78
2023-05-04T13:02:53.695Z,6.72
2023-05-04T13:05:20.366Z,6.15
2023-05-04T13:07:46.916Z,5.53
2023-05-04T13:10:13.446Z,5.53
2023-05-04T13:12:40.145Z,7.45
2023-05-04T13:15:07.522Z,6.50
2023-05-04T13:17:34.302Z,7.78
2023-05-04T13:20:00.965Z,6.50
2023-05-04T13:22:28.648Z,4.20
2023-05-04T13:24:55.242Z,6.35
2023-05-04T13:27:21.802Z,8.65
2023-05-04T13:29:48.321Z,5.53
2023-05-04T13:32:14.849Z,7.53
2023-05-04T13:34:42.210Z,4.78
2023-05-04T13:37:08.976Z,7.00
2023-05-04T13:39:41.923Z,6.00
2023-05-04T13:42:08.531Z,7.50
2023-05-04T13:44:36.461Z,7.40
2023-05-04T13:47:03.733Z,4.68
2023-05-04T13:49:30.532Z,5.38
2023-05-04T13:51:57.338Z,4.72
2023-05-04T13:54:24.557Z,5.82
2023-05-04T13:56:52.184Z,6.00
2023-05-04T13:59:19.296Z,6.05
2023-05-04T14:01:47.152Z,4.78
2023-05-04T14:04:14.570Z,5.25
2023-05-04T14:06:41.156Z,5.82
2023-05-04T14:09:08.341Z,5.55
2023-05-04T14:11:39.311Z,4.60
2023-05-04T14:14:05.928Z,10.30
2023-05-04T14:16:32.556Z,4.90
2023-05-04T14:19:02.217Z,4.90
2023-05-04T14:21:28.982Z,5.15
2023-05-04T14:23:55.648Z,5.18
2023-05-04T14:26:22.550Z,5.05
2023-05-04T14:28:49.314Z,6.43
2023-05-04T14:31:15.877Z,4.18
2023-05-04T14:33:42.972Z,5.45
2023-05-04T14:36:12.561Z,6.97
2023-05-04T14:38:39.221Z,5.00
2023-05-04T14:41:06.526Z,5.88
2023-05-04T14:43:33.174Z,4.20
2023-05-04T14:46:00.266Z,4.20
2023-05-04T14:48:27.569Z,5.35
2023-05-04T14:50:55.248Z,4.72
2023-05-04T14:53:21.920Z,4.90
2023-05-04T14:55:48.755Z,5.40
2023-05-04T14:58:33.476Z,6.65
2023-05-04T15:01:11.644Z,4.35
2023-05-04T15:03:42.442Z,5.57
2023-05-04T15:08:58.810Z,4.20
2023-05-04T15:11:25.693Z,3.80
2023-05-04T15:13:53.763Z,4.38
2023-05-04T15:16:23.641Z,6.93
2023-05-04T15:18:50.149Z,5.32
2023-05-04T15:21:16.712Z,5.70
2023-05-04T15:23:43.236Z,6.03
2023-05-04T15:26:09.767Z,5.57
2023-05-04T15:28:36.365Z,4.88
2023-05-04T15:31:03.032Z,4.88
2023-05-04T15:33:29.502Z,4.38
2023-05-04T15:35:56.042Z,6.03
2023-05-04T15:38:22.530Z,8.80
2023-05-04T15:40:49.597Z,4.72
2023-05-04T15:43:16.074Z,6.10
2023-05-04T15:45:42.620Z,6.10
2023-05-04T15:48:09.261Z,5.22
2023-05-04T15:50:35.795Z,5.10
2023-05-04T15:53:02.425Z,6.30
2023-05-04T15:55:28.958Z,6.20
2023-05-04T15:57:55.442Z,6.45
2023-05-04T16:00:22.359Z,6.40
2023-05-04T16:02:49.053Z,5.43
2023-05-04T16:05:15.636Z,5.22
2023-05-04T16:07:42.254Z,4.47
2023-05-04T16:10:09.725Z,4.28
2023-05-04T16:12:36.943Z,4.13
2023-05-04T16:15:03.993Z,6.57
2023-05-04T16:17:30.550Z,6.57
2023-05-04T16:19:57.123Z,4.93
2023-05-04T16:22:23.644Z,7.20
2023-05-04T16:24:50.185Z,6.32
2023-05-04T16:27:16.723Z,6.10
2023-05-04T16:29:43.212Z,3.50
2023-05-04T16:32:09.743Z,6.18
2023-05-04T16:34:36.246Z,5.60
2023-05-04T16:37:02.869Z,6.47
2023-05-04T16:39:29.582Z,4.57
2023-05-04T16:41:57.328Z,5.05
2023-05-04T16:44:24.070Z,4.90
2023-05-04T16:46:50.592Z,4.60
2023-05-04T16:49:17.847Z,5.05
2023-05-04T16:51:44.365Z,7.20
2023-05-04T16:54:10.999Z,7.45
2023-05-04T16:56:37.528Z,5.65
2023-05-04T16:59:04.694Z,5.72
2023-05-04T17:01:31.370Z,5.60
2023-05-04T17:03:58.200Z,6.63
2023-05-04T17:06:24.752Z,4.88
2023-05-04T17:08:51.258Z,4.85
2023-05-04T17:11:17.728Z,5.43
2023-05-04T17:13:44.264Z,6.55
2023-05-04T17:16:10.802Z,4.75
2023-05-04T17:18:37.346Z,5.65
2023-05-04T17:21:04.059Z,5.10
2023-05-04T17:23:30.598Z,4.53
2023-05-04T17:26:00.401Z,5.18
2023-05-04T17:28:27.040Z,7.03
2023-05-04T17:30:53.543Z,5.10
2023-05-04T17:33:20.098Z,5.50
2023-05-04T17:35:46.666Z,5.05
2023-05-04T17:38:13.248Z,5.13
2023-05-04T17:40:39.766Z,6.65
2023-05-04T17:43:06.370Z,7.05
2023-05-04T17:45:32.901Z,6.28
2023-05-04T17:47:59.544Z,7.32
2023-05-04T17:50:26.180Z,9.32
2023-05-04T17:52:54.155Z,4.07
2023-05-04T17:55:21.156Z,4.97
2023-05-04T17:57:47.674Z,5.47
2023-05-04T18:00:14.531Z,6.03
2023-05-04T18:02:41.138Z,5.70
2023-05-04T18:05:08.322Z,6.50
2023-05-04T18:07:34.906Z,7.20
2023-05-04T18:10:02.676Z,5.13
2023-05-04T18:12:29.234Z,5.43
2023-05-04T18:14:56.403Z,5.50
2023-05-04T18:17:22.892Z,5.78
2023-05-04T18:19:49.412Z,6.90
2023-05-04T18:22:16.029Z,4.95
2023-05-04T18:24:42.527Z,5.25
2023-05-04T18:27:09.111Z,7.03
2023-05-04T18:29:35.591Z,6.07
2023-05-04T18:32:02.106Z,5.07
2023-05-04T18:34:28.713Z,4.50
2023-05-04T18:36:55.526Z,4.80
2023-05-04T18:39:22.055Z,4.43
2023-05-04T18:41:48.712Z,6.90
2023-05-04T18:44:15.308Z,4.93
2023-05-04T18:46:41.890Z,7.97
2023-05-04T18:49:08.386Z,6.20
2023-05-04T18:51:46.324Z,7.07
2023-05-04T18:54:14.306Z,5.63
2023-05-04T18:56:40.934Z,4.50
2023-05-04T18:59:07.517Z,4.35
2023-05-04T19:01:37.802Z,5.57
2023-05-04T19:04:04.636Z,6.32
2023-05-04T19:06:31.988Z,5.57
2023-05-04T19:08:59.121Z,4.72
2023-05-04T19:11:28.922Z,5.55
2023-05-04T19:13:55.505Z,6.43
2023-05-04T19:16:22.047Z,4.32
2023-05-04T19:18:48.612Z,6.25
2023-05-04T19:21:15.324Z,5.90
2023-05-04T19:23:44.481Z,5.80
2023-05-04T19:26:11.320Z,5.40
2023-05-04T19:28:37.994Z,5.40
2023-05-04T19:31:04.604Z,5.00
2023-05-04T19:33:40.814Z,4.80
2023-05-04T19:36:11.610Z,5.78
2023-05-04T19:38:38.252Z,6.07
2023-05-04T19:41:04.874Z,5.00
2023-05-04T19:43:31.450Z,5.40
2023-05-04T19:45:58.009Z,8.80
2023-05-04T19:48:24.762Z,5.50
2023-05-04T19:50:51.261Z,4.50
2023-05-04T19:53:17.851Z,6.07
2023-05-04T19:55:44.553Z,4.93
2023-05-04T19:58:11.290Z,7.40
2023-05-04T20:00:38.321Z,4.57
2023-05-04T20:03:05.414Z,6.22
2023-05-04T20:05:32.269Z,6.18
2023-05-04T20:07:59.064Z,5.38
2023-05-04T20:10:25.690Z,5.45
2023-05-04T20:12:52.283Z,6.28
2023-05-04T20:15:18.967Z,6.35
2023-05-04T20:17:45.588Z,6.22
2023-05-04T20:20:12.497Z,5.50
2023-05-04T20:22:38.981Z,7.15
2023-05-04T20:25:06.083Z,7.22
2023-05-04T20:27:32.627Z,5.78
2023-05-04T20:30:00.416Z,8.85
2023-05-04T20:32:27.044Z,6.60
2023-05-04T20:34:53.603Z,5.30
2023-05-04T20:37:20.155Z,7.00
2023-05-04T20:39:46.640Z,7.05
2023-05-04T20:42:13.164Z,6.75
2023-05-04T20:44:39.664Z,8.10
2023-05-04T20:47:06.153Z,5.80
2023-05-04T20:49:32.741Z,6.13
2023-05-04T20:51:59.324Z,7.22
2023-05-04T20:54:25.997Z,7.82
2023-05-04T20:56:52.665Z,6.72
2023-05-04T20:59:19.196Z,8.30
2023-05-04T21:01:45.924Z,8.25
2023-05-04T21:04:12.502Z,6.43
2023-05-04T21:06:39.111Z,6.80
2023-05-04T21:09:08.512Z,6.25
2023-05-04T21:11:35.027Z,6.63
2023-05-04T21:14:01.561Z,9.40
2023-05-04T21:16:28.095Z,7.68
2023-05-04T21:18:54.616Z,9.18
2023-05-04T21:21:21.127Z,6.95
2023-05-04T21:23:47.627Z,8.88
2023-05-04T21:26:14.199Z,9.95
2023-05-04T21:28:40.665Z,8.48
2023-05-04T21:31:09.822Z,9.00
2023-05-04T21:33:36.377Z,8.68
2023-05-04T21:36:13.703Z,7.72
2023-05-04T21:38:40.381Z,9.25
2023-05-04T21:41:14.121Z,9.18
2023-05-04T21:43:41.204Z,8.32
2023-05-04T21:46:08.089Z,8.15
2023-05-04T21:48:35.703Z,9.60
2023-05-04T21:51:05.479Z,6.63
2023-05-04T21:53:32.020Z,8.18
2023-05-04T21:56:05.488Z,8.32
2023-05-04T21:58:31.963Z,8.40
2023-05-04T22:00:58.526Z,9.38
2023-05-04T22:03:25.102Z,6.97
2023-05-04T22:05:53.002Z,9.63
2023-05-04T22:08:22.794Z,7.25
2023-05-04T22:10:53.320Z,10.30
2023-05-04T22:13:19.962Z,7.97
2023-05-04T22:15:49.899Z,7.45
2023-05-04T22:18:17.657Z,8.55
2023-05-04T22:20:44.690Z,11.75
2023-05-04T22:23:11.438Z,7.32
2023-05-04T22:25:38.642Z,11.02
2023-05-04T22:28:05.546Z,8.43
2023-05-04T22:30:32.202Z,8.48
2023-05-04T22:32:58.812Z,8.90
2023-05-04T22:35:25.367Z,7.68
2023-05-04T22:37:51.948Z,7.72
2023-05-04T22:40:18.867Z,8.02
2023-05-04T22:42:45.399Z,9.77
2023-05-04T22:45:12.934Z,8.38
2023-05-04T22:47:39.686Z,6.68
2023-05-04T22:50:07.585Z,8.63
2023-05-04T22:52:34.421Z,7.93
2023-05-04T22:55:00.916Z,8.60
2023-05-04T22:57:27.457Z,7.05
2023-05-04T22:59:53.994Z,7.22
2023-05-04T23:02:20.554Z,6.15
2023-05-04T23:04:47.139Z,7.82
2023-05-04T23:07:13.670Z,6.60
2023-05-04T23:09:46.449Z,7.55
2023-05-04T23:12:13.740Z,10.07
2023-05-04T23:14:40.317Z,7.88
2023-05-04T23:17:07.268Z,7.70
2023-05-04T23:19:33.805Z,9.43
2023-05-04T23:22:00.352Z,9.00
2023-05-04T23:24:26.876Z,6.97
2023-05-04T23:26:53.417Z,7.28
2023-05-04T23:29:20.187Z,8.93
2023-05-04T23:31:46.707Z,9.02
2023-05-04T23:34:13.277Z,8.02
2023-05-04T23:36:39.890Z,8.85
2023-05-04T23:39:06.568Z,8.38
2023-05-04T23:41:33.240Z,8.13
2023-05-04T23:44:00.124Z,8.23
2023-05-04T23:46:26.656Z,7.72
2023-05-04T23:48:53.147Z,6.97
2023-05-04T23:51:19.727Z,7.55
2023-05-04T23:53:46.269Z,8.63
2023-05-04T23:56:13.101Z,6.75
2023-05-04T23:58:40.741Z,6.10
